createdAt,value
2018-11-11T00:00:49.792Z,12.00
2018-11-11T00:03:18.626Z,12.00
2018-11-11T00:05:47.460Z,12.00
2018-11-11T00:08:16.291Z,12.00
2018-11-11T00:10:45.127Z,12.00
2018-11-11T00:13:14.701Z,12.10
2018-11-11T00:15:43.536Z,12.10
2018-11-11T00:18:13.114Z,12.00
2018-11-11T00:20:42.708Z,12.10
2018-11-11T00:23:11.544Z,12.20
2018-11-11T00:25:40.391Z,12.10
2018-11-11T00:28:09.967Z,12.00
2018-11-11T00:30:38.810Z,12.10
2018-11-11T00:33:08.381Z,12.00
2018-11-11T00:35:37.239Z,12.10
2018-11-11T00:38:06.081Z,12.00
2018-11-11T00:40:34.918Z,12.00
2018-11-11T00:43:03.763Z,12.00
2018-11-11T00:45:33.349Z,12.00
2018-11-11T00:48:02.180Z,12.00
2018-11-11T00:50:31.034Z,12.00
2018-11-11T00:52:59.872Z,12.10
2018-11-11T00:55:28.714Z,12.00
2018-11-11T00:57:57.555Z,12.00
2018-11-11T01:00:26.404Z,11.90
2018-11-11T01:02:55.240Z,11.90
2018-11-11T01:05:24.076Z,11.90
2018-11-11T01:07:52.912Z,11.90
2018-11-11T01:10:21.759Z,11.90
2018-11-11T01:12:50.595Z,11.90
2018-11-11T01:15:19.438Z,11.90
2018-11-11T01:17:48.264Z,11.90
2018-11-11T01:20:17.105Z,11.80
2018-11-11T01:22:45.957Z,11.80
2018-11-11T01:25:14.782Z,11.80
2018-11-11T01:27:43.662Z,11.80
2018-11-11T01:30:12.445Z,11.80
2018-11-11T01:32:41.448Z,11.80
2018-11-11T01:35:10.282Z,11.80
2018-11-11T01:37:39.113Z,11.90
2018-11-11T01:40:07.957Z,11.90
2018-11-11T01:42:37.520Z,11.90
2018-11-11T01:45:06.348Z,11.90
2018-11-11T01:47:35.185Z,11.90
2018-11-11T01:50:04.018Z,11.90
2018-11-11T01:52:32.866Z,11.90
2018-11-11T01:55:01.716Z,11.90
2018-11-11T01:57:30.573Z,11.90
2018-11-11T01:59:59.408Z,11.80
2018-11-11T02:02:28.245Z,11.80
2018-11-11T02:04:57.085Z,11.70
2018-11-11T02:07:25.913Z,11.60
2018-11-11T02:09:54.829Z,11.60
2018-11-11T02:12:23.587Z,11.60
2018-11-11T02:14:52.421Z,11.60
2018-11-11T02:17:21.272Z,11.50
2018-11-11T02:19:50.117Z,11.50
2018-11-11T02:22:18.965Z,11.60
2018-11-11T02:24:47.810Z,11.50
2018-11-11T02:27:16.653Z,11.60
2018-11-11T02:29:46.235Z,11.50
2018-11-11T02:32:15.089Z,11.50
2018-11-11T02:34:43.928Z,11.50
2018-11-11T02:37:13.512Z,11.40
2018-11-11T02:39:42.344Z,11.40
2018-11-11T02:42:11.169Z,11.40
2018-11-11T02:44:40.016Z,11.40
2018-11-11T02:47:08.857Z,11.30
2018-11-11T02:49:37.688Z,11.30
2018-11-11T02:52:06.532Z,11.30
2018-11-11T02:54:35.360Z,11.20
2018-11-11T02:57:04.200Z,11.20
2018-11-11T02:59:33.045Z,11.20
2018-11-11T03:02:02.693Z,11.10
2018-11-11T03:04:31.533Z,11.10
2018-11-11T03:07:00.315Z,11.10
2018-11-11T03:09:29.152Z,11.00
2018-11-11T03:11:58.006Z,11.00
2018-11-11T03:14:27.586Z,10.90
2018-11-11T03:16:56.438Z,10.90
2018-11-11T03:19:25.305Z,10.90
2018-11-11T03:21:54.154Z,10.90
2018-11-11T03:24:22.979Z,10.80
2018-11-11T03:26:51.814Z,10.80
2018-11-11T03:29:20.647Z,10.80
2018-11-11T03:31:50.219Z,10.80
2018-11-11T03:34:19.056Z,10.80
2018-11-11T03:36:47.895Z,10.80
2018-11-11T03:39:16.733Z,10.80
2018-11-11T03:41:45.578Z,10.70
2018-11-11T03:44:14.411Z,10.70
2018-11-11T03:46:43.240Z,10.70
2018-11-11T03:49:12.085Z,10.70
2018-11-11T03:51:40.931Z,10.70
2018-11-11T03:54:09.771Z,10.60
2018-11-11T03:56:38.614Z,10.70
2018-11-11T04:01:36.890Z,10.60
2018-11-11T04:04:05.722Z,10.60
2018-11-11T04:06:34.567Z,10.60
2018-11-11T04:09:03.414Z,10.60
2018-11-11T04:11:32.254Z,10.60
2018-11-11T04:14:01.078Z,10.60
2018-11-11T04:16:30.662Z,10.60
2018-11-11T04:21:28.936Z,10.70
2018-11-11T04:23:57.864Z,10.60
2018-11-11T04:26:26.630Z,10.60
2018-11-11T04:28:55.463Z,10.70
2018-11-11T04:31:24.288Z,10.60
2018-11-11T04:33:53.124Z,10.60
2018-11-11T04:36:22.712Z,10.50
2018-11-11T04:38:51.573Z,10.60
2018-11-11T04:41:20.820Z,10.60
2018-11-11T04:43:49.653Z,10.60
2018-11-11T04:46:18.617Z,10.60
2018-11-11T04:48:48.061Z,10.60
2018-11-11T04:51:16.887Z,10.60
2018-11-11T04:53:46.464Z,10.60
2018-11-11T04:56:15.294Z,10.60
2018-11-11T04:58:44.125Z,10.60
2018-11-11T05:01:13.024Z,10.50
2018-11-11T05:03:41.809Z,10.60
2018-11-11T05:08:39.486Z,10.60
2018-11-11T05:11:08.321Z,10.60
2018-11-11T05:13:37.161Z,10.50
2018-11-11T05:16:05.996Z,10.60
2018-11-11T05:21:04.408Z,10.60
2018-11-11T05:23:33.246Z,10.60
2018-11-11T05:28:30.940Z,10.60
2018-11-11T05:30:59.784Z,10.60
2018-11-11T05:33:28.612Z,10.60
2018-11-11T05:35:57.457Z,10.60
2018-11-11T05:38:26.297Z,10.60
2018-11-11T05:40:55.138Z,10.70
2018-11-11T05:43:23.984Z,10.70
2018-11-11T05:45:52.827Z,10.70
2018-11-11T05:48:21.664Z,10.70
2018-11-11T05:50:51.820Z,10.70
2018-11-11T05:53:20.658Z,10.80
2018-11-11T05:55:49.484Z,10.80
2018-11-11T05:58:18.342Z,10.80
2018-11-11T06:00:47.931Z,10.80
2018-11-11T06:03:16.789Z,10.80
2018-11-11T06:05:45.625Z,10.80
2018-11-11T06:08:14.487Z,10.70
2018-11-11T06:10:43.317Z,10.90
2018-11-11T06:13:12.906Z,10.80
2018-11-11T06:15:42.486Z,10.80
2018-11-11T06:18:11.322Z,10.80
2018-11-11T06:20:40.907Z,10.70
2018-11-11T06:23:09.749Z,10.80
2018-11-11T06:25:38.594Z,10.80
2018-11-11T06:28:07.445Z,10.90
2018-11-11T06:30:36.285Z,10.90
2018-11-11T06:33:05.861Z,11.00
2018-11-11T06:35:34.706Z,11.00
2018-11-11T06:38:03.536Z,11.00
2018-11-11T06:40:32.371Z,11.00
2018-11-11T06:43:01.205Z,11.00
2018-11-11T06:45:30.036Z,11.00
2018-11-11T06:47:59.626Z,11.00
2018-11-11T06:50:28.491Z,11.00
2018-11-11T06:52:57.328Z,10.90
2018-11-11T06:55:26.185Z,10.90
2018-11-11T06:57:55.035Z,10.90
2018-11-11T07:00:23.867Z,10.90
2018-11-11T07:02:52.706Z,10.90
2018-11-11T07:05:21.543Z,10.80
2018-11-11T07:07:50.392Z,10.80
2018-11-11T07:10:19.241Z,10.90
2018-11-11T07:12:48.088Z,10.80
2018-11-11T07:15:16.918Z,10.80
2018-11-11T07:17:46.493Z,10.80
2018-11-11T07:20:15.327Z,10.80
2018-11-11T07:22:44.164Z,10.80
2018-11-11T07:25:12.997Z,10.70
2018-11-11T07:27:42.573Z,10.70
2018-11-11T07:30:11.405Z,10.70
2018-11-11T07:32:40.258Z,10.70
2018-11-11T07:35:09.101Z,10.70
2018-11-11T07:37:37.936Z,10.70
2018-11-11T07:40:06.777Z,10.80
2018-11-11T07:42:35.623Z,10.80
2018-11-11T07:45:05.221Z,10.80
2018-11-11T07:47:34.052Z,10.90
2018-11-11T07:50:02.882Z,10.90
2018-11-11T07:52:31.715Z,10.90
2018-11-11T07:55:00.564Z,10.90
2018-11-11T07:57:29.386Z,10.90
2018-11-11T07:59:58.228Z,10.90
2018-11-11T08:02:27.057Z,11.00
2018-11-11T08:04:56.637Z,11.00
2018-11-11T08:07:25.468Z,11.00
2018-11-11T08:09:54.295Z,11.10
2018-11-11T08:12:23.121Z,11.10
2018-11-11T08:14:51.974Z,11.10
2018-11-11T08:17:20.811Z,11.20
2018-11-11T08:19:50.385Z,11.20
2018-11-11T08:22:19.236Z,11.30
2018-11-11T08:24:48.083Z,11.30
2018-11-11T08:27:16.915Z,11.40
2018-11-11T08:29:45.772Z,11.40
2018-11-11T08:32:14.599Z,11.50
2018-11-11T08:34:44.136Z,11.50
2018-11-11T08:37:12.968Z,11.50
2018-11-11T08:39:41.808Z,11.50
2018-11-11T08:42:10.638Z,11.60
2018-11-11T08:44:39.488Z,11.60
2018-11-11T08:47:08.324Z,11.70
2018-11-11T08:49:37.214Z,11.70
2018-11-11T08:52:06.054Z,11.70
2018-11-11T08:54:34.877Z,11.80
2018-11-11T08:57:04.451Z,11.80
2018-11-11T08:59:33.286Z,11.90
2018-11-11T09:02:02.119Z,11.90
2018-11-11T09:04:30.977Z,12.00
2018-11-11T09:06:59.825Z,12.00
2018-11-11T09:09:28.664Z,12.10
2018-11-11T09:11:57.497Z,12.20
2018-11-11T09:16:55.744Z,12.30
2018-11-11T09:19:24.590Z,12.30
2018-11-11T09:21:53.462Z,12.40
2018-11-11T09:24:22.305Z,12.50
2018-11-11T09:26:51.148Z,12.50
2018-11-11T09:29:20.031Z,12.60
2018-11-11T09:31:48.832Z,12.70
2018-11-11T09:34:17.672Z,12.80
2018-11-11T09:36:46.503Z,12.80
2018-11-11T09:39:15.426Z,12.90
2018-11-11T09:41:44.197Z,13.00
2018-11-11T09:44:13.773Z,13.10
2018-11-11T09:46:42.611Z,13.20
2018-11-11T09:49:11.452Z,13.20
2018-11-11T09:51:40.280Z,13.20
2018-11-11T09:54:09.932Z,13.30
2018-11-11T09:56:38.715Z,13.40
2018-11-11T09:59:07.535Z,13.40
2018-11-11T10:01:36.370Z,13.40
2018-11-11T10:04:05.204Z,13.50
2018-11-11T10:06:34.124Z,13.60
2018-11-11T10:09:02.874Z,13.60
2018-11-11T10:11:31.733Z,13.70
2018-11-11T10:14:01.313Z,13.70
2018-11-11T10:16:30.156Z,13.70
2018-11-11T10:18:58.983Z,13.80
2018-11-11T10:21:28.581Z,13.80
2018-11-11T10:23:58.167Z,13.90
2018-11-11T10:26:27.005Z,13.90
2018-11-11T10:28:55.856Z,14.00
2018-11-11T10:31:24.685Z,14.00
2018-11-11T10:33:53.519Z,14.10
2018-11-11T10:36:22.354Z,14.10
2018-11-11T10:38:51.188Z,14.10
2018-11-11T10:41:20.019Z,14.20
2018-11-11T10:43:49.596Z,14.30
2018-11-11T10:46:18.441Z,14.30
2018-11-11T10:48:47.282Z,14.40
2018-11-11T10:51:16.110Z,14.40
2018-11-11T10:53:44.942Z,14.50
2018-11-11T10:56:13.770Z,14.50
2018-11-11T10:58:43.347Z,14.50
2018-11-11T11:01:12.186Z,14.60
2018-11-11T11:03:41.021Z,14.70
2018-11-11T11:06:10.677Z,14.70
2018-11-11T11:08:39.455Z,14.70
2018-11-11T11:11:09.079Z,14.70
2018-11-11T11:13:39.586Z,14.80
2018-11-11T11:16:09.145Z,14.80
2018-11-11T11:18:38.442Z,14.90
2018-11-11T11:21:07.285Z,14.90
2018-11-11T11:23:36.124Z,14.90
2018-11-11T11:26:04.966Z,15.00
2018-11-11T11:28:34.538Z,15.00
2018-11-11T11:31:03.378Z,15.10
2018-11-11T11:33:32.214Z,15.10
2018-11-11T11:36:01.048Z,15.10
2018-11-11T11:38:29.884Z,15.10
2018-11-11T11:40:58.737Z,15.20
2018-11-11T11:43:27.580Z,15.30
2018-11-11T11:45:56.418Z,15.40
2018-11-11T11:48:25.253Z,15.40
2018-11-11T11:50:54.086Z,15.50
2018-11-11T11:53:22.935Z,15.50
2018-11-11T11:55:51.774Z,15.50
2018-11-11T11:58:20.605Z,15.60
2018-11-11T12:00:49.463Z,15.60
2018-11-11T12:03:18.295Z,15.70
2018-11-11T12:05:47.867Z,15.70
2018-11-11T12:08:16.710Z,15.70
2018-11-11T12:10:45.545Z,15.90
2018-11-11T12:13:14.380Z,15.80
2018-11-11T12:15:43.221Z,15.90
2018-11-11T12:18:12.057Z,15.90
2018-11-11T12:20:40.917Z,16.00
2018-11-11T12:23:09.813Z,16.00
2018-11-11T12:25:38.590Z,16.00
2018-11-11T12:28:07.417Z,16.10
2018-11-11T12:30:37.027Z,16.00
2018-11-11T12:33:05.830Z,16.10
2018-11-11T12:35:34.666Z,16.10
2018-11-11T12:38:03.501Z,16.10
2018-11-11T12:40:32.355Z,16.10
2018-11-11T12:43:01.207Z,16.10
2018-11-11T12:45:30.043Z,16.10
2018-11-11T12:47:59.669Z,16.10
2018-11-11T12:50:29.414Z,16.20
2018-11-11T12:52:58.058Z,16.30
2018-11-11T12:55:27.713Z,16.40
2018-11-11T12:57:56.495Z,16.30
2018-11-11T13:00:25.337Z,16.40
2018-11-11T13:02:54.915Z,16.30
2018-11-11T13:05:23.743Z,16.40
2018-11-11T13:07:52.599Z,16.40
2018-11-11T13:10:21.418Z,16.40
2018-11-11T13:12:50.995Z,16.40
2018-11-11T13:15:19.844Z,16.30
2018-11-11T13:17:48.668Z,16.30
2018-11-11T13:20:17.522Z,16.40
2018-11-11T13:22:46.467Z,16.40
2018-11-11T13:25:15.185Z,16.30
2018-11-11T13:27:44.742Z,16.40
2018-11-11T13:30:13.583Z,16.30
2018-11-11T13:32:42.417Z,16.40
2018-11-11T13:35:11.256Z,16.30
2018-11-11T13:37:40.091Z,16.30
2018-11-11T13:40:08.911Z,16.30
2018-11-11T13:42:37.743Z,16.20
2018-11-11T13:45:06.576Z,16.30
2018-11-11T13:47:35.434Z,16.20
2018-11-11T13:50:04.261Z,16.20
2018-11-11T13:52:33.837Z,16.20
2018-11-11T13:55:02.675Z,16.20
2018-11-11T13:57:31.508Z,16.20
2018-11-11T14:00:00.378Z,16.10
2018-11-11T14:02:29.948Z,16.10
2018-11-11T14:04:59.507Z,16.00
2018-11-11T14:07:28.335Z,16.00
2018-11-11T14:09:57.911Z,16.00
2018-11-11T14:12:26.748Z,16.00
2018-11-11T14:14:55.580Z,16.00
2018-11-11T14:17:24.417Z,16.00
2018-11-11T14:19:54.055Z,16.00
2018-11-11T14:22:23.605Z,15.90
2018-11-11T14:24:52.657Z,15.90
2018-11-11T14:27:21.312Z,15.90
2018-11-11T14:29:50.888Z,15.90
2018-11-11T14:32:19.834Z,15.80
2018-11-11T14:34:49.060Z,15.80
2018-11-11T14:37:17.912Z,15.70
2018-11-11T14:39:46.753Z,15.70
2018-11-11T14:42:15.575Z,15.80
2018-11-11T14:44:44.415Z,15.80
2018-11-11T14:47:13.259Z,15.70
2018-11-11T14:49:42.083Z,15.70
2018-11-11T14:52:11.000Z,15.70
2018-11-11T14:54:40.512Z,15.60
2018-11-11T14:57:09.344Z,15.60
2018-11-11T14:59:38.204Z,15.50
2018-11-11T15:02:07.792Z,15.50
2018-11-11T15:04:36.625Z,15.40
2018-11-11T15:07:05.452Z,15.40
2018-11-11T15:09:34.290Z,15.40
2018-11-11T15:12:03.125Z,15.40
2018-11-11T15:14:31.962Z,15.30
2018-11-11T15:17:01.539Z,15.30
2018-11-11T15:21:59.819Z,15.20
2018-11-11T15:24:28.661Z,15.20
2018-11-11T15:26:58.219Z,15.20
2018-11-11T15:29:27.076Z,15.10
2018-11-11T15:31:55.911Z,15.10
2018-11-11T15:34:24.745Z,15.00
2018-11-11T15:36:53.586Z,15.00
2018-11-11T15:39:22.430Z,15.00
2018-11-11T15:41:51.251Z,14.90
2018-11-11T15:44:20.074Z,14.90
2018-11-11T15:46:49.653Z,14.80
2018-11-11T15:49:18.501Z,14.80
2018-11-11T15:51:47.332Z,14.70
2018-11-11T15:54:16.164Z,14.70
2018-11-11T15:56:44.993Z,14.60
2018-11-11T15:59:13.900Z,14.60
2018-11-11T16:01:42.666Z,14.50
2018-11-11T16:04:11.498Z,14.50
2018-11-11T16:06:41.081Z,14.40
2018-11-11T16:09:09.917Z,14.40
2018-11-11T16:11:38.754Z,14.40
2018-11-11T16:14:07.816Z,14.40
2018-11-11T16:16:36.448Z,14.40
2018-11-11T16:19:05.289Z,14.30
2018-11-11T16:21:34.124Z,14.30
2018-11-11T16:26:32.425Z,14.20
2018-11-11T16:29:01.278Z,14.20
2018-11-11T16:31:30.133Z,14.20
2018-11-11T16:33:59.692Z,14.10
2018-11-11T16:36:28.613Z,14.10
2018-11-11T16:38:57.371Z,14.10
2018-11-11T16:41:26.410Z,14.00
2018-11-11T16:43:55.096Z,14.10
2018-11-11T16:46:24.685Z,14.00
2018-11-11T16:48:53.514Z,13.90
2018-11-11T16:51:22.369Z,13.80
2018-11-11T16:53:51.296Z,13.80
2018-11-11T16:56:20.060Z,13.80
2018-11-11T16:58:48.903Z,13.80
2018-11-11T17:01:17.756Z,13.80
2018-11-11T17:03:46.596Z,13.80
2018-11-11T17:06:15.430Z,13.80
2018-11-11T17:08:44.292Z,13.80
2018-11-11T17:11:13.176Z,13.70
2018-11-11T17:13:41.970Z,13.70
2018-11-11T17:16:10.808Z,13.60
2018-11-11T17:18:39.645Z,13.60
2018-11-11T17:21:09.310Z,13.50
2018-11-11T17:23:38.117Z,13.50
2018-11-11T17:26:06.962Z,13.50
2018-11-11T17:28:35.819Z,13.50
2018-11-11T17:31:05.454Z,13.60
2018-11-11T17:33:34.244Z,13.70
2018-11-11T17:36:03.142Z,13.60
2018-11-11T17:38:32.686Z,13.50
2018-11-11T17:41:01.516Z,13.60
2018-11-11T17:43:30.379Z,13.50
2018-11-11T17:45:59.215Z,13.50
2018-11-11T17:48:28.103Z,13.50
2018-11-11T17:50:56.920Z,13.40
2018-11-11T17:53:25.746Z,13.50
2018-11-11T17:55:54.659Z,13.40
2018-11-11T17:58:23.451Z,13.40
2018-11-11T18:00:52.305Z,13.40
2018-11-11T18:03:21.182Z,13.40
2018-11-11T18:05:49.953Z,13.30
2018-11-11T18:08:18.781Z,13.30
2018-11-11T18:10:47.784Z,13.20
2018-11-11T18:13:17.248Z,13.20
2018-11-11T18:15:46.081Z,13.20
2018-11-11T18:18:14.929Z,13.10
2018-11-11T18:20:44.559Z,13.00
2018-11-11T18:23:13.368Z,13.00
2018-11-11T18:25:42.236Z,13.00
2018-11-11T18:28:11.922Z,13.00
2018-11-11T18:30:41.424Z,12.90
2018-11-11T18:35:39.704Z,13.00
2018-11-11T18:38:08.533Z,12.90
2018-11-11T18:40:37.368Z,12.90
2018-11-11T18:43:06.233Z,12.90
2018-11-11T18:45:35.107Z,12.80
2018-11-11T18:48:03.901Z,12.80
2018-11-11T18:50:33.736Z,12.80
2018-11-11T18:53:02.593Z,12.80
2018-11-11T18:55:31.509Z,12.80
2018-11-11T18:58:00.300Z,12.80
2018-11-11T19:00:29.155Z,12.70
2018-11-11T19:02:58.744Z,12.70
2018-11-11T19:05:27.593Z,12.70
2018-11-11T19:07:56.417Z,12.70
2018-11-11T19:10:26.084Z,12.70
2018-11-11T19:12:54.870Z,12.70
2018-11-11T19:15:23.707Z,12.70
2018-11-11T19:17:52.564Z,12.70
2018-11-11T19:20:21.410Z,12.80
2018-11-11T19:22:50.273Z,12.70
2018-11-11T19:25:19.194Z,12.70
2018-11-11T19:27:48.029Z,12.70
2018-11-11T19:30:16.822Z,12.70
2018-11-11T19:32:45.633Z,12.70
2018-11-11T19:35:14.520Z,12.70
2018-11-11T19:37:43.380Z,12.70
2018-11-11T19:40:12.221Z,12.70
2018-11-11T19:42:41.070Z,12.70
2018-11-11T19:45:09.932Z,12.70
2018-11-11T19:47:38.769Z,12.60
2018-11-11T19:50:07.664Z,12.70
2018-11-11T19:52:37.248Z,12.60
2018-11-11T19:55:06.115Z,12.60
2018-11-11T19:57:34.939Z,12.60
2018-11-11T20:00:04.419Z,12.60
2018-11-11T20:02:33.286Z,12.60
2018-11-11T20:05:02.130Z,12.60
2018-11-11T20:07:30.965Z,12.60
2018-11-11T20:09:59.805Z,12.60
2018-11-11T20:12:29.394Z,12.60
2018-11-11T20:14:58.258Z,12.60
2018-11-11T20:17:27.102Z,12.60
2018-11-11T20:19:55.934Z,12.60
2018-11-11T20:22:24.773Z,12.60
2018-11-11T20:24:53.597Z,12.60
2018-11-11T20:27:22.444Z,12.60
2018-11-11T20:29:51.289Z,12.70
2018-11-11T20:32:20.133Z,12.70
2018-11-11T20:34:48.986Z,12.60
2018-11-11T20:37:17.913Z,12.70
2018-11-11T20:39:47.532Z,12.60
2018-11-11T20:42:16.331Z,12.60
2018-11-11T20:44:45.171Z,12.70
2018-11-11T20:47:14.748Z,12.60
2018-11-11T20:49:43.624Z,12.60
2018-11-11T20:52:13.166Z,12.70
2018-11-11T20:54:41.991Z,12.70
2018-11-11T20:57:11.587Z,12.70
2018-11-11T20:59:41.161Z,12.70
2018-11-11T21:02:09.995Z,12.70
2018-11-11T21:04:38.837Z,12.70
2018-11-11T21:07:07.680Z,12.70
2018-11-11T21:09:36.518Z,12.70
2018-11-11T21:12:05.366Z,12.70
2018-11-11T21:14:34.196Z,12.80
2018-11-11T21:17:03.052Z,12.80
2018-11-11T21:19:32.705Z,12.80
2018-11-11T21:22:01.465Z,12.80
2018-11-11T21:24:30.418Z,12.80
2018-11-11T21:29:28.649Z,12.90
2018-11-11T21:31:57.532Z,12.90
2018-11-11T21:34:27.071Z,12.90
2018-11-11T21:36:55.925Z,12.90
2018-11-11T21:39:24.746Z,13.00
2018-11-11T21:41:54.318Z,13.00
2018-11-11T21:44:23.157Z,13.10
2018-11-11T21:46:52.765Z,13.00
2018-11-11T21:49:21.613Z,13.10
2018-11-11T21:51:50.464Z,13.10
2018-11-11T21:54:19.304Z,13.10
2018-11-11T21:56:48.141Z,13.10
2018-11-11T21:59:17.013Z,13.10
2018-11-11T22:01:46.797Z,13.10
2018-11-11T22:04:27.115Z,13.10
2018-11-11T22:06:55.975Z,13.10
2018-11-11T22:09:24.800Z,13.10
2018-11-11T22:11:53.635Z,13.10
2018-11-11T22:14:22.484Z,13.10
2018-11-11T22:16:51.312Z,13.20
2018-11-11T22:19:20.145Z,13.20
2018-11-11T22:21:48.973Z,13.20
2018-11-11T22:24:18.592Z,13.10
2018-11-11T22:26:47.421Z,13.10
2018-11-11T22:29:16.251Z,13.10
2018-11-11T22:31:45.079Z,13.10
2018-11-11T22:34:14.671Z,13.10
2018-11-11T22:36:43.550Z,13.10
2018-11-11T22:39:12.385Z,13.10
2018-11-11T22:41:41.229Z,13.00
2018-11-11T22:44:10.083Z,13.10
2018-11-11T22:46:38.916Z,13.00
2018-11-11T22:49:07.744Z,13.00
2018-11-11T22:51:36.588Z,13.00
2018-11-11T22:54:05.425Z,13.00
2018-11-11T22:56:34.263Z,13.00
2018-11-11T22:59:03.093Z,13.00
2018-11-11T23:01:31.928Z,13.00
2018-11-11T23:04:00.765Z,13.00
2018-11-11T23:06:29.608Z,13.00
2018-11-11T23:08:58.442Z,13.10
2018-11-11T23:11:27.284Z,13.10
2018-11-11T23:13:56.115Z,13.10
2018-11-11T23:16:25.704Z,13.10
2018-11-11T23:18:54.544Z,13.10
2018-11-11T23:21:23.379Z,13.10
2018-11-11T23:23:52.217Z,13.10
2018-11-11T23:26:21.053Z,13.20
2018-11-11T23:28:49.879Z,13.20
2018-11-11T23:31:18.712Z,13.10
2018-11-11T23:33:47.541Z,13.20
2018-11-11T23:36:17.118Z,13.10
2018-11-11T23:38:45.938Z,13.20
2018-11-11T23:41:15.516Z,13.10
2018-11-11T23:43:44.339Z,13.20
2018-11-11T23:46:13.908Z,13.10
2018-11-11T23:48:42.743Z,13.20
2018-11-11T23:51:11.576Z,13.20
2018-11-11T23:53:40.403Z,13.20
2018-11-11T23:56:09.991Z,13.20
2018-11-11T23:58:38.827Z,13.20
